Terminal Aerodrome Forecast
Issued by NWS

Home | Current Version | Previous Version | Text Only | Print | Product List | Glossary Off
Versions: 1 2 3 4 5 6 7 8 9 10 11 12 13 14 15

000
FTUS43 KIWX 230530
TAFSBN
TAF
KSBN 230530Z 2306/2406 12005KT P6SM SCT250
     FM231400 14010KT P6SM SCT150 BKN250
     FM232100 15012KT P6SM VCSH BKN100
     FM240300 17010KT P6SM BKN060 WS020/20055KT=

USA.gov is the U.S. government's official web portal to all federal, state and local government web resources and services.